sensor_id;sensor_type;location;lat;lon;timestamp;P1;durP1;ratioP1;P2;durP2;ratioP2
16346;SDS011;8283;48.504;13.734;2023-04-29T00:02:13;3.20;;;1.17;;
16346;SDS011;8283;48.504;13.734;2023-04-29T00:04:57;2.45;;;1.02;;
16346;SDS011;8283;48.504;13.734;2023-04-29T00:07:41;2.70;;;1.00;;
16346;SDS011;8283;48.504;13.734;2023-04-29T00:10:26;1.05;;;0.82;;
16346;SDS011;8283;48.504;13.734;2023-04-29T00:13:10;2.63;;;0.90;;
16346;SDS011;8283;48.504;13.734;2023-04-29T00:15:55;2.90;;;0.88;;
16346;SDS011;8283;48.504;13.734;2023-04-29T00:18:40;3.30;;;1.10;;
16346;SDS011;8283;48.504;13.734;2023-04-29T00:21:24;0.88;;;0.88;;
16346;SDS011;8283;48.504;13.734;2023-04-29T00:24:10;1.30;;;1.20;;
16346;SDS011;8283;48.504;13.734;2023-04-29T00:26:54;5.15;;;1.60;;
16346;SDS011;8283;48.504;13.734;2023-04-29T00:29:38;1.35;;;1.25;;
16346;SDS011;8283;48.504;13.734;2023-04-29T00:32:22;3.38;;;1.55;;
16346;SDS011;8283;48.504;13.734;2023-04-29T00:35:07;3.13;;;1.65;;
16346;SDS011;8283;48.504;13.734;2023-04-29T00:37:51;3.17;;;1.52;;
16346;SDS011;8283;48.504;13.734;2023-04-29T00:40:36;3.35;;;2.00;;
16346;SDS011;8283;48.504;13.734;2023-04-29T00:43:21;2.10;;;1.90;;
16346;SDS011;8283;48.504;13.734;2023-04-29T00:46:05;1.73;;;1.63;;
16346;SDS011;8283;48.504;13.734;2023-04-29T00:48:50;3.83;;;2.13;;
16346;SDS011;8283;48.504;13.734;2023-04-29T00:51:35;2.10;;;1.83;;
16346;SDS011;8283;48.504;13.734;2023-04-29T00:54:20;2.42;;;2.22;;
16346;SDS011;8283;48.504;13.734;2023-04-29T00:57:05;1.90;;;1.80;;
16346;SDS011;8283;48.504;13.734;2023-04-29T00:59:49;2.30;;;2.00;;
16346;SDS011;8283;48.504;13.734;2023-04-29T01:02:34;3.45;;;1.60;;
16346;SDS011;8283;48.504;13.734;2023-04-29T01:05:19;3.83;;;1.67;;
16346;SDS011;8283;48.504;13.734;2023-04-29T01:13:57;20.77;;;3.38;;
16346;SDS011;8283;48.504;13.734;2023-04-29T01:16:50;2.03;;;1.77;;
16346;SDS011;8283;48.504;13.734;2023-04-29T01:19:52;5.30;;;2.65;;
16346;SDS011;8283;48.504;13.734;2023-04-29T01:22:39;2.70;;;2.50;;
16346;SDS011;8283;48.504;13.734;2023-04-29T01:25:24;2.22;;;2.03;;
16346;SDS011;8283;48.504;13.734;2023-04-29T01:31:40;2.35;;;2.08;;
16346;SDS011;8283;48.504;13.734;2023-04-29T01:34:41;2.53;;;2.00;;
16346;SDS011;8283;48.504;13.734;2023-04-29T01:37:39;3.00;;;1.98;;
16346;SDS011;8283;48.504;13.734;2023-04-29T01:40:33;1.73;;;1.50;;
16346;SDS011;8283;48.504;13.734;2023-04-29T01:43:33;5.63;;;1.17;;
16346;SDS011;8283;48.504;13.734;2023-04-29T01:46:27;1.33;;;1.10;;
16346;SDS011;8283;48.504;13.734;2023-04-29T01:49:14;3.00;;;1.50;;
16346;SDS011;8283;48.504;13.734;2023-04-29T01:51:59;2.22;;;1.90;;
16346;SDS011;8283;48.504;13.734;2023-04-29T01:54:43;3.67;;;2.13;;
16346;SDS011;8283;48.504;13.734;2023-04-29T01:57:29;3.72;;;2.20;;
16346;SDS011;8283;48.504;13.734;2023-04-29T02:00:23;3.13;;;2.83;;
16346;SDS011;8283;48.504;13.734;2023-04-29T02:03:09;3.30;;;2.25;;
16346;SDS011;8283;48.504;13.734;2023-04-29T02:05:57;5.60;;;3.17;;
16346;SDS011;8283;48.504;13.734;2023-04-29T02:08:42;4.18;;;3.10;;
16346;SDS011;8283;48.504;13.734;2023-04-29T02:11:27;4.07;;;3.00;;
16346;SDS011;8283;48.504;13.734;2023-04-29T02:14:14;4.57;;;3.22;;
16346;SDS011;8283;48.504;13.734;2023-04-29T02:16:59;6.15;;;2.88;;
16346;SDS011;8283;48.504;13.734;2023-04-29T02:19:44;3.28;;;2.67;;
16346;SDS011;8283;48.504;13.734;2023-04-29T02:22:29;2.92;;;2.60;;
16346;SDS011;8283;48.504;13.734;2023-04-29T02:25:14;3.05;;;2.40;;
16346;SDS011;8283;48.504;13.734;2023-04-29T02:27:58;4.53;;;2.95;;
16346;SDS011;8283;48.504;13.734;2023-04-29T02:30:43;3.80;;;2.78;;
16346;SDS011;8283;48.504;13.734;2023-04-29T02:33:27;3.70;;;3.35;;
16346;SDS011;8283;48.504;13.734;2023-04-29T02:36:12;4.18;;;3.50;;
16346;SDS011;8283;48.504;13.734;2023-04-29T02:38:57;5.05;;;3.28;;
16346;SDS011;8283;48.504;13.734;2023-04-29T02:41:42;3.15;;;2.85;;
16346;SDS011;8283;48.504;13.734;2023-04-29T02:44:28;3.58;;;3.00;;
16346;SDS011;8283;48.504;13.734;2023-04-29T02:47:14;2.60;;;2.40;;
16346;SDS011;8283;48.504;13.734;2023-04-29T02:49:59;4.05;;;2.60;;
16346;SDS011;8283;48.504;13.734;2023-04-29T02:52:43;3.63;;;2.08;;
16346;SDS011;8283;48.504;13.734;2023-04-29T02:55:27;2.40;;;2.20;;
16346;SDS011;8283;48.504;13.734;2023-04-29T02:58:16;2.28;;;2.05;;
16346;SDS011;8283;48.504;13.734;2023-04-29T03:01:00;3.03;;;2.50;;
16346;SDS011;8283;48.504;13.734;2023-04-29T03:03:45;7.65;;;3.35;;
16346;SDS011;8283;48.504;13.734;2023-04-29T03:06:30;2.85;;;2.58;;
16346;SDS011;8283;48.504;13.734;2023-04-29T03:09:14;2.35;;;2.00;;
16346;SDS011;8283;48.504;13.734;2023-04-29T03:12:01;5.18;;;1.92;;
16346;SDS011;8283;48.504;13.734;2023-04-29T03:14:47;5.35;;;2.38;;
16346;SDS011;8283;48.504;13.734;2023-04-29T03:17:31;3.50;;;2.42;;
16346;SDS011;8283;48.504;13.734;2023-04-29T03:20:17;2.90;;;2.55;;
16346;SDS011;8283;48.504;13.734;2023-04-29T03:23:03;3.30;;;2.97;;
16346;SDS011;8283;48.504;13.734;2023-04-29T03:25:48;3.92;;;2.53;;
16346;SDS011;8283;48.504;13.734;2023-04-29T03:28:32;2.75;;;2.55;;
16346;SDS011;8283;48.504;13.734;2023-04-29T03:31:17;2.85;;;2.10;;
16346;SDS011;8283;48.504;13.734;2023-04-29T03:34:03;1.98;;;1.52;;
16346;SDS011;8283;48.504;13.734;2023-04-29T03:36:50;1.85;;;1.65;;
16346;SDS011;8283;48.504;13.734;2023-04-29T03:39:35;1.98;;;1.77;;
16346;SDS011;8283;48.504;13.734;2023-04-29T03:42:19;2.88;;;2.00;;
16346;SDS011;8283;48.504;13.734;2023-04-29T03:45:04;2.80;;;2.20;;
16346;SDS011;8283;48.504;13.734;2023-04-29T03:47:49;2.22;;;2.03;;
16346;SDS011;8283;48.504;13.734;2023-04-29T03:50:36;1.63;;;1.52;;
16346;SDS011;8283;48.504;13.734;2023-04-29T03:53:21;1.63;;;1.52;;
16346;SDS011;8283;48.504;13.734;2023-04-29T03:56:05;1.85;;;1.65;;
16346;SDS011;8283;48.504;13.734;2023-04-29T03:58:51;5.43;;;2.00;;
16346;SDS011;8283;48.504;13.734;2023-04-29T04:01:37;1.67;;;1.42;;
16346;SDS011;8283;48.504;13.734;2023-04-29T04:04:22;2.17;;;1.95;;
16346;SDS011;8283;48.504;13.734;2023-04-29T04:07:07;1.70;;;1.60;;
16346;SDS011;8283;48.504;13.734;2023-04-29T04:10:11;2.65;;;1.90;;
16346;SDS011;8283;48.504;13.734;2023-04-29T04:12:56;1.98;;;1.77;;
16346;SDS011;8283;48.504;13.734;2023-04-29T04:15:40;1.92;;;1.50;;
16346;SDS011;8283;48.504;13.734;2023-04-29T04:18:25;1.70;;;1.55;;
16346;SDS011;8283;48.504;13.734;2023-04-29T04:21:10;1.83;;;1.50;;
16346;SDS011;8283;48.504;13.734;2023-04-29T04:23:56;2.00;;;1.75;;
16346;SDS011;8283;48.504;13.734;2023-04-29T04:26:41;2.00;;;1.73;;
16346;SDS011;8283;48.504;13.734;2023-04-29T04:29:36;1.30;;;1.17;;
16346;SDS011;8283;48.504;13.734;2023-04-29T04:32:40;1.90;;;1.70;;
16346;SDS011;8283;48.504;13.734;2023-04-29T04:35:25;3.30;;;1.98;;
16346;SDS011;8283;48.504;13.734;2023-04-29T04:38:09;2.03;;;1.88;;
16346;SDS011;8283;48.504;13.734;2023-04-29T04:40:57;1.63;;;1.52;;
16346;SDS011;8283;48.504;13.734;2023-04-29T04:43:52;2.22;;;1.92;;
16346;SDS011;8283;48.504;13.734;2023-04-29T04:46:46;2.10;;;1.90;;
16346;SDS011;8283;48.504;13.734;2023-04-29T04:49:34;2.60;;;2.15;;
16346;SDS011;8283;48.504;13.734;2023-04-29T04:52:20;2.85;;;2.30;;
16346;SDS011;8283;48.504;13.734;2023-04-29T04:55:10;1.65;;;1.52;;
16346;SDS011;8283;48.504;13.734;2023-04-29T04:57:54;7.40;;;1.73;;
16346;SDS011;8283;48.504;13.734;2023-04-29T05:00:42;1.73;;;1.50;;
16346;SDS011;8283;48.504;13.734;2023-04-29T05:03:28;1.65;;;1.55;;
16346;SDS011;8283;48.504;13.734;2023-04-29T05:06:12;2.22;;;1.80;;
16346;SDS011;8283;48.504;13.734;2023-04-29T05:08:58;2.00;;;1.60;;
16346;SDS011;8283;48.504;13.734;2023-04-29T05:11:43;1.80;;;1.63;;
16346;SDS011;8283;48.504;13.734;2023-04-29T05:14:31;2.10;;;1.52;;
16346;SDS011;8283;48.504;13.734;2023-04-29T05:17:15;1.48;;;1.38;;
16346;SDS011;8283;48.504;13.734;2023-04-29T05:20:00;1.35;;;1.25;;
16346;SDS011;8283;48.504;13.734;2023-04-29T05:22:44;1.50;;;1.30;;
16346;SDS011;8283;48.504;13.734;2023-04-29T05:25:30;1.55;;;1.27;;
16346;SDS011;8283;48.504;13.734;2023-04-29T05:28:15;2.17;;;1.70;;
16346;SDS011;8283;48.504;13.734;2023-04-29T05:31:00;1.65;;;1.48;;
16346;SDS011;8283;48.504;13.734;2023-04-29T05:33:44;1.58;;;1.33;;
16346;SDS011;8283;48.504;13.734;2023-04-29T05:36:30;1.40;;;1.30;;
16346;SDS011;8283;48.504;13.734;2023-04-29T05:39:14;1.60;;;1.50;;
16346;SDS011;8283;48.504;13.734;2023-04-29T05:42:00;1.50;;;1.40;;
16346;SDS011;8283;48.504;13.734;2023-04-29T05:44:54;3.95;;;1.35;;
16346;SDS011;8283;48.504;13.734;2023-04-29T05:47:38;1.50;;;1.40;;
16346;SDS011;8283;48.504;13.734;2023-04-29T05:50:23;1.30;;;1.10;;
16346;SDS011;8283;48.504;13.734;2023-04-29T05:53:08;1.90;;;1.40;;
16346;SDS011;8283;48.504;13.734;2023-04-29T05:55:55;1.25;;;1.15;;
16346;SDS011;8283;48.504;13.734;2023-04-29T05:58:39;2.38;;;1.30;;
16346;SDS011;8283;48.504;13.734;2023-04-29T06:01:25;1.25;;;1.10;;
16346;SDS011;8283;48.504;13.734;2023-04-29T06:04:09;1.10;;;1.00;;
16346;SDS011;8283;48.504;13.734;2023-04-29T06:07:09;1.15;;;1.00;;
16346;SDS011;8283;48.504;13.734;2023-04-29T06:10:05;1.40;;;1.30;;
16346;SDS011;8283;48.504;13.734;2023-04-29T06:12:50;8.57;;;4.90;;
16346;SDS011;8283;48.504;13.734;2023-04-29T06:15:35;2.35;;;1.48;;
16346;SDS011;8283;48.504;13.734;2023-04-29T06:18:20;1.98;;;1.50;;
16346;SDS011;8283;48.504;13.734;2023-04-29T06:21:04;1.60;;;1.25;;
16346;SDS011;8283;48.504;13.734;2023-04-29T06:23:49;2.25;;;1.30;;
16346;SDS011;8283;48.504;13.734;2023-04-29T06:26:34;2.22;;;1.30;;
16346;SDS011;8283;48.504;13.734;2023-04-29T06:29:19;1.27;;;1.10;;
16346;SDS011;8283;48.504;13.734;2023-04-29T06:32:04;1.20;;;1.00;;
16346;SDS011;8283;48.504;13.734;2023-04-29T06:34:49;1.02;;;0.95;;
16346;SDS011;8283;48.504;13.734;2023-04-29T06:37:43;0.82;;;0.82;;
16346;SDS011;8283;48.504;13.734;2023-04-29T06:40:46;1.45;;;1.00;;
16346;SDS011;8283;48.504;13.734;2023-04-29T06:43:59;1.10;;;0.90;;
16346;SDS011;8283;48.504;13.734;2023-04-29T06:46:56;1.13;;;1.02;;
16346;SDS011;8283;48.504;13.734;2023-04-29T06:50:00;1.10;;;0.90;;
16346;SDS011;8283;48.504;13.734;2023-04-29T06:52:44;1.00;;;0.90;;
16346;SDS011;8283;48.504;13.734;2023-04-29T06:55:29;3.20;;;0.90;;
16346;SDS011;8283;48.504;13.734;2023-04-29T06:58:14;1.70;;;0.82;;
16346;SDS011;8283;48.504;13.734;2023-04-29T07:00:59;0.90;;;0.80;;
16346;SDS011;8283;48.504;13.734;2023-04-29T07:03:46;1.10;;;1.00;;
16346;SDS011;8283;48.504;13.734;2023-04-29T07:06:31;1.40;;;1.02;;
16346;SDS011;8283;48.504;13.734;2023-04-29T07:09:16;1.20;;;1.10;;
16346;SDS011;8283;48.504;13.734;2023-04-29T07:12:00;2.85;;;1.10;;
16346;SDS011;8283;48.504;13.734;2023-04-29T07:14:45;3.10;;;1.15;;
16346;SDS011;8283;48.504;13.734;2023-04-29T07:17:31;1.10;;;1.00;;
16346;SDS011;8283;48.504;13.734;2023-04-29T07:20:15;1.20;;;1.10;;
16346;SDS011;8283;48.504;13.734;2023-04-29T07:23:01;1.42;;;1.33;;
16346;SDS011;8283;48.504;13.734;2023-04-29T07:25:45;1.50;;;1.40;;
16346;SDS011;8283;48.504;13.734;2023-04-29T07:28:30;2.42;;;1.33;;
16346;SDS011;8283;48.504;13.734;2023-04-29T07:31:14;2.70;;;1.70;;
16346;SDS011;8283;48.504;13.734;2023-04-29T07:33:59;8.70;;;4.22;;
16346;SDS011;8283;48.504;13.734;2023-04-29T07:36:44;8.23;;;4.00;;
16346;SDS011;8283;48.504;13.734;2023-04-29T07:39:28;8.00;;;4.28;;
16346;SDS011;8283;48.504;13.734;2023-04-29T07:42:15;4.50;;;2.30;;
16346;SDS011;8283;48.504;13.734;2023-04-29T07:44:59;1.75;;;1.50;;
16346;SDS011;8283;48.504;13.734;2023-04-29T07:47:44;2.10;;;1.50;;
16346;SDS011;8283;48.504;13.734;2023-04-29T07:50:28;1.38;;;1.27;;
16346;SDS011;8283;48.504;13.734;2023-04-29T07:53:13;1.23;;;0.90;;
16346;SDS011;8283;48.504;13.734;2023-04-29T07:55:58;2.75;;;1.70;;
16346;SDS011;8283;48.504;13.734;2023-04-29T07:58:48;1.20;;;1.10;;
16346;SDS011;8283;48.504;13.734;2023-04-29T08:01:33;1.30;;;1.17;;
16346;SDS011;8283;48.504;13.734;2023-04-29T08:04:17;1.08;;;0.90;;
16346;SDS011;8283;48.504;13.734;2023-04-29T08:07:11;1.17;;;0.85;;
16346;SDS011;8283;48.504;13.734;2023-04-29T08:10:05;1.10;;;1.00;;
16346;SDS011;8283;48.504;13.734;2023-04-29T08:12:50;2.55;;;1.25;;
16346;SDS011;8283;48.504;13.734;2023-04-29T08:15:34;2.85;;;1.10;;
16346;SDS011;8283;48.504;13.734;2023-04-29T08:18:19;1.75;;;0.98;;
16346;SDS011;8283;48.504;13.734;2023-04-29T08:21:04;7.05;;;3.72;;
16346;SDS011;8283;48.504;13.734;2023-04-29T08:23:48;2.60;;;1.45;;
16346;SDS011;8283;48.504;13.734;2023-04-29T08:26:33;2.70;;;1.50;;
16346;SDS011;8283;48.504;13.734;2023-04-29T08:29:17;1.40;;;1.20;;
16346;SDS011;8283;48.504;13.734;2023-04-29T08:32:01;4.82;;;1.38;;
16346;SDS011;8283;48.504;13.734;2023-04-29T08:34:46;1.30;;;1.20;;
16346;SDS011;8283;48.504;13.734;2023-04-29T08:37:31;1.52;;;1.02;;
16346;SDS011;8283;48.504;13.734;2023-04-29T08:40:15;2.28;;;1.20;;
16346;SDS011;8283;48.504;13.734;2023-04-29T08:42:59;1.73;;;1.40;;
16346;SDS011;8283;48.504;13.734;2023-04-29T08:45:46;1.27;;;1.10;;
16346;SDS011;8283;48.504;13.734;2023-04-29T08:48:31;1.45;;;1.35;;
16346;SDS011;8283;48.504;13.734;2023-04-29T08:51:17;5.65;;;2.50;;
16346;SDS011;8283;48.504;13.734;2023-04-29T08:54:01;3.65;;;1.88;;
16346;SDS011;8283;48.504;13.734;2023-04-29T08:56:46;2.10;;;1.88;;
16346;SDS011;8283;48.504;13.734;2023-04-29T08:59:31;2.28;;;1.77;;
16346;SDS011;8283;48.504;13.734;2023-04-29T09:02:16;3.10;;;1.70;;
16346;SDS011;8283;48.504;13.734;2023-04-29T09:05:06;1.90;;;1.70;;
16346;SDS011;8283;48.504;13.734;2023-04-29T09:07:55;2.45;;;1.83;;
16346;SDS011;8283;48.504;13.734;2023-04-29T09:10:42;2.50;;;1.98;;
16346;SDS011;8283;48.504;13.734;2023-04-29T09:13:28;3.53;;;2.20;;
16346;SDS011;8283;48.504;13.734;2023-04-29T09:16:14;3.55;;;2.38;;
16346;SDS011;8283;48.504;13.734;2023-04-29T09:18:58;3.28;;;2.15;;
16346;SDS011;8283;48.504;13.734;2023-04-29T09:21:44;3.83;;;2.20;;
16346;SDS011;8283;48.504;13.734;2023-04-29T09:24:39;3.25;;;2.50;;
16346;SDS011;8283;48.504;13.734;2023-04-29T09:27:26;2.35;;;2.03;;
16346;SDS011;8283;48.504;13.734;2023-04-29T09:30:11;2.88;;;2.03;;
16346;SDS011;8283;48.504;13.734;2023-04-29T09:33:08;5.55;;;3.72;;
16346;SDS011;8283;48.504;13.734;2023-04-29T09:35:52;2.95;;;2.35;;
16346;SDS011;8283;48.504;13.734;2023-04-29T09:38:37;4.30;;;3.55;;
16346;SDS011;8283;48.504;13.734;2023-04-29T09:41:38;2.47;;;2.20;;
16346;SDS011;8283;48.504;13.734;2023-04-29T09:44:40;3.50;;;2.30;;
16346;SDS011;8283;48.504;13.734;2023-04-29T09:47:28;2.80;;;2.10;;
16346;SDS011;8283;48.504;13.734;2023-04-29T09:50:14;2.10;;;1.90;;
16346;SDS011;8283;48.504;13.734;2023-04-29T09:52:59;3.00;;;2.00;;
16346;SDS011;8283;48.504;13.734;2023-04-29T09:58:37;2.25;;;1.90;;
16346;SDS011;8283;48.504;13.734;2023-04-29T10:01:22;2.30;;;2.03;;
16346;SDS011;8283;48.504;13.734;2023-04-29T10:04:11;3.97;;;2.50;;
16346;SDS011;8283;48.504;13.734;2023-04-29T10:06:58;2.65;;;1.88;;
16346;SDS011;8283;48.504;13.734;2023-04-29T10:09:44;2.17;;;1.77;;
16346;SDS011;8283;48.504;13.734;2023-04-29T10:12:30;3.63;;;1.92;;
16346;SDS011;8283;48.504;13.734;2023-04-29T10:15:41;2.47;;;2.00;;
16346;SDS011;8283;48.504;13.734;2023-04-29T10:18:34;2.28;;;1.88;;
16346;SDS011;8283;48.504;13.734;2023-04-29T10:21:20;2.63;;;2.17;;
16346;SDS011;8283;48.504;13.734;2023-04-29T10:24:10;2.67;;;1.95;;
16346;SDS011;8283;48.504;13.734;2023-04-29T10:26:56;2.35;;;1.70;;
16346;SDS011;8283;48.504;13.734;2023-04-29T10:29:42;1.77;;;1.55;;
16346;SDS011;8283;48.504;13.734;2023-04-29T10:32:27;2.08;;;1.88;;
16346;SDS011;8283;48.504;13.734;2023-04-29T10:35:14;1.98;;;1.70;;
16346;SDS011;8283;48.504;13.734;2023-04-29T10:38:00;1.98;;;1.70;;
16346;SDS011;8283;48.504;13.734;2023-04-29T10:40:51;1.63;;;1.52;;
16346;SDS011;8283;48.504;13.734;2023-04-29T10:43:37;1.88;;;1.67;;
16346;SDS011;8283;48.504;13.734;2023-04-29T10:47:07;1.50;;;1.30;;
16346;SDS011;8283;48.504;13.734;2023-04-29T10:50:04;1.60;;;1.20;;
16346;SDS011;8283;48.504;13.734;2023-04-29T10:52:53;1.08;;;0.98;;
16346;SDS011;8283;48.504;13.734;2023-04-29T10:55:38;2.88;;;1.15;;
16346;SDS011;8283;48.504;13.734;2023-04-29T10:58:34;3.30;;;1.40;;
16346;SDS011;8283;48.504;13.734;2023-04-29T11:01:38;1.63;;;1.30;;
16346;SDS011;8283;48.504;13.734;2023-04-29T11:04:33;2.75;;;1.20;;
16346;SDS011;8283;48.504;13.734;2023-04-29T11:07:28;1.02;;;0.93;;
16346;SDS011;8283;48.504;13.734;2023-04-29T11:10:12;2.53;;;1.30;;
16346;SDS011;8283;48.504;13.734;2023-04-29T11:16:13;2.45;;;1.00;;
16346;SDS011;8283;48.504;13.734;2023-04-29T11:19:08;1.15;;;1.02;;
16346;SDS011;8283;48.504;13.734;2023-04-29T11:22:02;1.42;;;0.73;;
16346;SDS011;8283;48.504;13.734;2023-04-29T11:24:52;1.42;;;1.08;;
16346;SDS011;8283;48.504;13.734;2023-04-29T11:27:39;1.50;;;1.20;;
16346;SDS011;8283;48.504;13.734;2023-04-29T11:30:25;2.20;;;0.98;;
16346;SDS011;8283;48.504;13.734;2023-04-29T11:33:12;1.67;;;1.05;;
16346;SDS011;8283;48.504;13.734;2023-04-29T11:35:57;2.17;;;0.90;;
16346;SDS011;8283;48.504;13.734;2023-04-29T11:38:41;1.45;;;1.00;;
16346;SDS011;8283;48.504;13.734;2023-04-29T11:41:26;1.75;;;0.80;;
16346;SDS011;8283;48.504;13.734;2023-04-29T11:44:11;1.02;;;0.90;;
16346;SDS011;8283;48.504;13.734;2023-04-29T11:47:05;1.23;;;0.82;;
16346;SDS011;8283;48.504;13.734;2023-04-29T11:49:50;1.10;;;0.90;;
16346;SDS011;8283;48.504;13.734;2023-04-29T11:52:36;1.08;;;0.70;;
16346;SDS011;8283;48.504;13.734;2023-04-29T11:55:21;0.80;;;0.80;;
16346;SDS011;8283;48.504;13.734;2023-04-29T11:58:06;0.77;;;0.70;;
16346;SDS011;8283;48.504;13.734;2023-04-29T12:00:50;0.82;;;0.73;;
16346;SDS011;8283;48.504;13.734;2023-04-29T12:03:34;1.08;;;0.80;;
16346;SDS011;8283;48.504;13.734;2023-04-29T12:06:19;2.47;;;0.80;;
16346;SDS011;8283;48.504;13.734;2023-04-29T12:09:03;1.65;;;0.80;;
16346;SDS011;8283;48.504;13.734;2023-04-29T12:11:48;0.93;;;0.80;;
16346;SDS011;8283;48.504;13.734;2023-04-29T12:14:33;2.85;;;1.02;;
16346;SDS011;8283;48.504;13.734;2023-04-29T12:17:18;1.00;;;0.88;;
16346;SDS011;8283;48.504;13.734;2023-04-29T12:20:04;1.58;;;0.70;;
16346;SDS011;8283;48.504;13.734;2023-04-29T12:22:50;1.25;;;1.00;;
16346;SDS011;8283;48.504;13.734;2023-04-29T12:25:34;0.88;;;0.88;;
16346;SDS011;8283;48.504;13.734;2023-04-29T12:28:19;1.60;;;1.17;;
16346;SDS011;8283;48.504;13.734;2023-04-29T12:31:04;1.33;;;0.90;;
16346;SDS011;8283;48.504;13.734;2023-04-29T12:33:48;2.10;;;1.00;;
16346;SDS011;8283;48.504;13.734;2023-04-29T12:36:40;1.75;;;0.98;;
16346;SDS011;8283;48.504;13.734;2023-04-29T12:39:25;5.07;;;1.08;;
16346;SDS011;8283;48.504;13.734;2023-04-29T12:42:14;2.13;;;1.00;;
16346;SDS011;8283;48.504;13.734;2023-04-29T12:44:59;0.80;;;0.80;;
16346;SDS011;8283;48.504;13.734;2023-04-29T12:47:44;2.97;;;0.80;;
16346;SDS011;8283;48.504;13.734;2023-04-29T12:50:29;1.77;;;0.82;;
16346;SDS011;8283;48.504;13.734;2023-04-29T12:53:16;1.20;;;0.90;;
16346;SDS011;8283;48.504;13.734;2023-04-29T12:56:00;1.00;;;0.90;;
16346;SDS011;8283;48.504;13.734;2023-04-29T12:58:45;3.88;;;1.02;;
16346;SDS011;8283;48.504;13.734;2023-04-29T13:01:29;1.65;;;1.15;;
16346;SDS011;8283;48.504;13.734;2023-04-29T13:04:13;4.03;;;0.80;;
16346;SDS011;8283;48.504;13.734;2023-04-29T13:06:58;1.10;;;0.77;;
16346;SDS011;8283;48.504;13.734;2023-04-29T13:09:46;0.98;;;0.80;;
16346;SDS011;8283;48.504;13.734;2023-04-29T13:12:31;1.02;;;0.80;;
16346;SDS011;8283;48.504;13.734;2023-04-29T13:15:16;1.58;;;0.90;;
16346;SDS011;8283;48.504;13.734;2023-04-29T13:18:01;1.85;;;0.60;;
16346;SDS011;8283;48.504;13.734;2023-04-29T13:20:45;1.00;;;0.90;;
16346;SDS011;8283;48.504;13.734;2023-04-29T13:23:30;1.30;;;0.90;;
16346;SDS011;8283;48.504;13.734;2023-04-29T13:26:14;1.42;;;0.80;;
16346;SDS011;8283;48.504;13.734;2023-04-29T13:28:59;2.10;;;0.90;;
16346;SDS011;8283;48.504;13.734;2023-04-29T13:31:43;1.63;;;0.98;;
16346;SDS011;8283;48.504;13.734;2023-04-29T13:34:28;0.60;;;0.60;;
16346;SDS011;8283;48.504;13.734;2023-04-29T13:37:12;1.17;;;0.80;;
16346;SDS011;8283;48.504;13.734;2023-04-29T13:39:56;1.73;;;0.70;;
16346;SDS011;8283;48.504;13.734;2023-04-29T13:42:40;1.08;;;0.80;;
16346;SDS011;8283;48.504;13.734;2023-04-29T13:45:24;0.80;;;0.80;;
16346;SDS011;8283;48.504;13.734;2023-04-29T13:48:09;1.23;;;0.82;;
16346;SDS011;8283;48.504;13.734;2023-04-29T13:50:53;1.80;;;0.80;;
16346;SDS011;8283;48.504;13.734;2023-04-29T13:53:38;0.68;;;0.68;;
16346;SDS011;8283;48.504;13.734;2023-04-29T13:56:22;1.08;;;0.90;;
16346;SDS011;8283;48.504;13.734;2023-04-29T13:59:08;1.73;;;0.70;;
16346;SDS011;8283;48.504;13.734;2023-04-29T14:01:57;1.40;;;0.82;;
16346;SDS011;8283;48.504;13.734;2023-04-29T14:04:42;0.80;;;0.80;;
16346;SDS011;8283;48.504;13.734;2023-04-29T14:07:26;1.10;;;0.75;;
16346;SDS011;8283;48.504;13.734;2023-04-29T14:10:10;1.95;;;0.80;;
16346;SDS011;8283;48.504;13.734;2023-04-29T14:12:54;0.70;;;0.70;;
16346;SDS011;8283;48.504;13.734;2023-04-29T14:15:39;0.80;;;0.65;;
16346;SDS011;8283;48.504;13.734;2023-04-29T14:18:23;1.60;;;0.82;;
16346;SDS011;8283;48.504;13.734;2023-04-29T14:21:08;1.98;;;0.98;;
16346;SDS011;8283;48.504;13.734;2023-04-29T14:23:53;1.10;;;0.85;;
16346;SDS011;8283;48.504;13.734;2023-04-29T14:26:38;2.13;;;0.77;;
16346;SDS011;8283;48.504;13.734;2023-04-29T14:29:22;1.08;;;0.70;;
16346;SDS011;8283;48.504;13.734;2023-04-29T14:32:07;1.40;;;0.75;;
16346;SDS011;8283;48.504;13.734;2023-04-29T14:34:51;1.08;;;0.68;;
16346;SDS011;8283;48.504;13.734;2023-04-29T14:37:36;1.90;;;0.70;;
16346;SDS011;8283;48.504;13.734;2023-04-29T14:40:20;1.15;;;0.98;;
16346;SDS011;8283;48.504;13.734;2023-04-29T14:43:05;1.10;;;0.93;;
16346;SDS011;8283;48.504;13.734;2023-04-29T14:45:49;1.10;;;0.90;;
16346;SDS011;8283;48.504;13.734;2023-04-29T14:48:34;1.05;;;0.90;;
16346;SDS011;8283;48.504;13.734;2023-04-29T14:51:19;1.13;;;0.95;;
16346;SDS011;8283;48.504;13.734;2023-04-29T14:54:03;1.90;;;1.00;;
16346;SDS011;8283;48.504;13.734;2023-04-29T14:56:48;1.20;;;0.70;;
16346;SDS011;8283;48.504;13.734;2023-04-29T14:59:33;1.23;;;0.80;;
16346;SDS011;8283;48.504;13.734;2023-04-29T15:02:17;1.00;;;0.90;;
16346;SDS011;8283;48.504;13.734;2023-04-29T15:05:01;1.70;;;0.80;;
16346;SDS011;8283;48.504;13.734;2023-04-29T15:07:47;0.90;;;0.80;;
16346;SDS011;8283;48.504;13.734;2023-04-29T15:10:31;1.20;;;0.90;;
16346;SDS011;8283;48.504;13.734;2023-04-29T15:13:16;0.80;;;0.75;;
16346;SDS011;8283;48.504;13.734;2023-04-29T15:16:00;1.80;;;1.15;;
16346;SDS011;8283;48.504;13.734;2023-04-29T15:18:44;2.75;;;1.63;;
16346;SDS011;8283;48.504;13.734;2023-04-29T15:21:29;0.75;;;0.75;;
16346;SDS011;8283;48.504;13.734;2023-04-29T15:24:15;1.33;;;0.90;;
16346;SDS011;8283;48.504;13.734;2023-04-29T15:27:00;1.25;;;1.02;;
16346;SDS011;8283;48.504;13.734;2023-04-29T15:29:45;1.95;;;0.60;;
16346;SDS011;8283;48.504;13.734;2023-04-29T15:32:29;2.33;;;0.80;;
16346;SDS011;8283;48.504;13.734;2023-04-29T15:35:15;1.08;;;0.77;;
16346;SDS011;8283;48.504;13.734;2023-04-29T15:37:59;1.77;;;1.20;;
16346;SDS011;8283;48.504;13.734;2023-04-29T15:40:43;0.82;;;0.80;;
16346;SDS011;8283;48.504;13.734;2023-04-29T15:43:29;0.95;;;0.88;;
16346;SDS011;8283;48.504;13.734;2023-04-29T15:46:14;1.45;;;1.05;;
16346;SDS011;8283;48.504;13.734;2023-04-29T15:48:58;0.77;;;0.77;;
16346;SDS011;8283;48.504;13.734;2023-04-29T15:51:43;1.20;;;1.00;;
16346;SDS011;8283;48.504;13.734;2023-04-29T15:54:27;1.10;;;0.90;;
16346;SDS011;8283;48.504;13.734;2023-04-29T15:57:11;2.22;;;1.00;;
16346;SDS011;8283;48.504;13.734;2023-04-29T15:59:56;2.15;;;1.17;;
16346;SDS011;8283;48.504;13.734;2023-04-29T16:02:40;2.08;;;0.95;;
16346;SDS011;8283;48.504;13.734;2023-04-29T16:05:24;0.82;;;0.82;;
16346;SDS011;8283;48.504;13.734;2023-04-29T16:08:09;0.80;;;0.80;;
16346;SDS011;8283;48.504;13.734;2023-04-29T16:10:54;0.70;;;0.70;;
16346;SDS011;8283;48.504;13.734;2023-04-29T16:13:38;1.40;;;0.77;;
16346;SDS011;8283;48.504;13.734;2023-04-29T16:16:23;1.20;;;1.10;;
16346;SDS011;8283;48.504;13.734;2023-04-29T16:19:08;0.88;;;0.88;;
16346;SDS011;8283;48.504;13.734;2023-04-29T16:21:53;3.53;;;0.98;;
16346;SDS011;8283;48.504;13.734;2023-04-29T16:24:37;0.73;;;0.70;;
16346;SDS011;8283;48.504;13.734;2023-04-29T16:27:22;2.03;;;0.65;;
16346;SDS011;8283;48.504;13.734;2023-04-29T16:30:06;1.98;;;0.93;;
16346;SDS011;8283;48.504;13.734;2023-04-29T16:32:51;1.55;;;0.70;;
16346;SDS011;8283;48.504;13.734;2023-04-29T16:35:35;1.58;;;0.82;;
16346;SDS011;8283;48.504;13.734;2023-04-29T16:38:20;1.50;;;0.82;;
16346;SDS011;8283;48.504;13.734;2023-04-29T16:41:05;1.58;;;0.68;;
16346;SDS011;8283;48.504;13.734;2023-04-29T16:43:50;0.80;;;0.80;;
16346;SDS011;8283;48.504;13.734;2023-04-29T16:46:35;1.33;;;0.82;;
16346;SDS011;8283;48.504;13.734;2023-04-29T16:49:22;1.40;;;0.75;;
16346;SDS011;8283;48.504;13.734;2023-04-29T16:52:10;2.43;;;1.20;;
16346;SDS011;8283;48.504;13.734;2023-04-29T16:54:58;0.75;;;0.75;;
16346;SDS011;8283;48.504;13.734;2023-04-29T16:57:44;1.23;;;0.80;;
16346;SDS011;8283;48.504;13.734;2023-04-29T17:00:28;0.90;;;0.70;;